Time;durP1;ratioP1;P1;durP2;ratioP2;P2;SDS_P1;SDS_P2;PMS_P1;PMS_P2;Temp;Humidity;BMP_temperature;BMP_pressure;BME280_temperature;BME280_humidity;BME280_pressure;Samples;Min_cycle;Max_cycle;Signal;HPM_P1;HPM_P2
2022/08/18 00:01:18;;;;;;;5.00;4.00;;;22.20;99.00;;;;;;10041458;28;20044;-67
2022/08/18 00:06:08;;;;;;;6.10;3.05;;;22.30;99.00;;;;;;10056824;28;20037;-67
2022/08/18 00:10:59;;;;;;;5.95;3.28;;;22.10;99.10;;;;;;10053800;28;20087;-68
2022/08/18 00:15:50;;;;;;;4.25;3.47;;;22.00;99.30;;;;;;10066157;28;20464;-66
2022/08/18 00:20:41;;;;;;;3.75;2.78;;;21.90;99.40;;;;;;10061074;28;20041;-66
2022/08/18 00:25:31;;;;;;;12.45;3.45;;;21.80;99.50;;;;;;10056929;28;20030;-67
2022/08/18 00:30:22;;;;;;;5.53;3.50;;;21.70;99.60;;;;;;10057246;28;20029;-67
2022/08/18 00:35:19;;;;;;;6.65;4.65;;;21.70;99.70;;;;;;10055157;28;20053;-66
2022/08/18 00:40:15;;;;;;;6.50;3.33;;;21.80;99.60;;;;;;10068526;28;20037;-67
2022/08/18 00:45:06;;;;;;;3.72;3.05;;;21.90;99.60;;;;;;10052641;28;20022;-66
2022/08/18 00:49:57;;;;;;;6.75;3.50;;;22.10;99.50;;;;;;10057613;28;20032;-66
2022/08/18 00:54:48;;;;;;;4.50;2.97;;;22.00;99.70;;;;;;10043759;28;20022;-67
2022/08/18 00:59:48;;;;;;;4.60;3.50;;;22.10;99.60;;;;;;10035444;28;20132;-67
2022/08/18 01:05:07;;;;;;;4.78;3.20;;;21.80;99.80;;;;;;10059332;28;20021;-66
2022/08/18 01:09:58;;;;;;;5.47;3.22;;;21.90;99.90;;;;;;10030772;28;20065;-66
2022/08/18 01:14:49;;;;;;;4.20;3.80;;;22.00;99.80;;;;;;10074642;28;20090;-67
2022/08/18 01:30:14;;;;;;;4.90;3.25;;;22.00;99.90;;;;;;10056026;28;20462;-66
2022/08/18 01:35:07;;;;;;;3.97;3.20;;;21.90;99.90;;;;;;10052336;28;20033;-66
2022/08/18 01:39:58;;;;;;;4.63;3.20;;;21.90;99.90;;;;;;10043799;28;20027;-67
2022/08/18 01:44:50;;;;;;;5.63;3.92;;;21.90;99.90;;;;;;10034203;28;20148;-67
2022/08/18 01:49:41;;;;;;;5.65;3.50;;;22.10;99.90;;;;;;10061536;28;20030;-67
2022/08/18 01:54:32;;;;;;;4.95;3.72;;;22.10;99.90;;;;;;10055688;28;20476;-67
2022/08/18 01:59:23;;;;;;;3.70;2.85;;;22.20;99.90;;;;;;10052715;28;20032;-67
2022/08/18 02:04:15;;;;;;;4.38;3.67;;;22.20;99.90;;;;;;10056983;28;20395;-67
2022/08/18 02:09:06;;;;;;;4.22;3.33;;;22.10;99.90;;;;;;10052441;28;20033;-67
2022/08/18 02:13:57;;;;;;;3.75;3.17;;;22.10;99.90;;;;;;10063536;28;20026;-66
2022/08/18 02:18:47;;;;;;;5.60;3.50;;;22.00;99.90;;;;;;10060985;28;20029;-66
2022/08/18 02:23:40;;;;;;;5.13;3.17;;;21.90;99.90;;;;;;10051783;28;20136;-66
2022/08/18 02:28:30;;;;;;;4.55;3.75;;;21.90;99.90;;;;;;10055043;28;20032;-66
2022/08/18 02:33:21;;;;;;;4.82;3.40;;;21.70;99.90;;;;;;10052153;28;20025;-66
2022/08/18 02:38:12;;;;;;;5.05;3.60;;;21.80;99.90;;;;;;10061830;28;20615;-67
2022/08/18 02:43:08;;;;;;;5.22;3.47;;;21.90;99.90;;;;;;10063175;28;20037;-66
2022/08/18 02:47:58;;;;;;;5.38;3.53;;;21.90;99.90;;;;;;10053714;28;20112;-66
2022/08/18 02:52:49;;;;;;;7.10;3.30;;;21.90;99.90;;;;;;10054496;28;20117;-68
2022/08/18 02:57:45;;;;;;;5.35;3.42;;;21.90;99.90;;;;;;10051455;28;20021;-67
2022/08/18 03:02:37;;;;;;;4.70;3.58;;;21.80;99.90;;;;;;10053009;28;20038;-66
2022/08/18 03:07:27;;;;;;;4.88;3.65;;;21.80;99.90;;;;;;10054560;28;20045;-66
2022/08/18 03:12:18;;;;;;;4.40;3.35;;;22.00;99.90;;;;;;10058775;28;20495;-66
2022/08/18 03:17:09;;;;;;;4.72;3.55;;;22.00;99.90;;;;;;10072399;28;20541;-67
2022/08/18 03:22:00;;;;;;;4.53;3.10;;;22.10;99.90;;;;;;10057053;28;20428;-67
2022/08/18 03:26:52;;;;;;;6.28;4.07;;;22.00;99.90;;;;;;10060450;28;20029;-68
2022/08/18 03:31:44;;;;;;;4.47;3.08;;;22.00;99.90;;;;;;10053048;28;20029;-67
2022/08/18 03:36:36;;;;;;;4.40;3.60;;;22.00;99.90;;;;;;10074561;28;20036;-67
2022/08/18 03:41:28;;;;;;;6.57;3.65;;;21.90;99.90;;;;;;10060620;28;20542;-66
2022/08/18 03:46:21;;;;;;;5.28;3.67;;;22.10;99.90;;;;;;10064968;28;20511;-66
2022/08/18 03:51:33;;;;;;;6.32;4.05;;;22.10;99.90;;;;;;10056099;28;20032;-67
2022/08/18 03:56:26;;;;;;;5.63;3.72;;;22.00;99.90;;;;;;10051818;28;20095;-67
2022/08/18 04:01:21;;;;;;;4.75;3.40;;;22.00;99.90;;;;;;10054489;28;20038;-67
2022/08/18 04:06:29;;;;;;;5.32;4.30;;;22.00;99.90;;;;;;10057420;28;20365;-67
2022/08/18 04:11:20;;;;;;;6.55;4.40;;;21.90;99.90;;;;;;10052772;28;20038;-66
2022/08/18 04:16:11;;;;;;;4.70;3.92;;;21.80;99.90;;;;;;10062182;28;20052;-66
2022/08/18 04:21:06;;;;;;;8.27;3.90;;;21.60;99.90;;;;;;10058585;28;20369;-67
2022/08/18 04:25:58;;;;;;;5.95;4.40;;;21.60;99.90;;;;;;10055882;28;20120;-67
2022/08/18 04:30:48;;;;;;;7.90;3.58;;;21.70;99.90;;;;;;10049495;28;20018;-66
2022/08/18 04:35:39;;;;;;;3.95;3.55;;;21.70;99.90;;;;;;10065442;28;20417;-65
2022/08/18 04:40:32;;;;;;;5.38;3.83;;;21.70;99.90;;;;;;10067815;28;20039;-66
2022/08/18 04:45:23;;;;;;;7.80;4.10;;;21.60;99.90;;;;;;10054077;28;20041;-66
2022/08/18 04:50:14;;;;;;;6.18;3.80;;;21.60;99.90;;;;;;10054326;28;20032;-67
2022/08/18 04:55:05;;;;;;;5.80;3.70;;;21.50;99.90;;;;;;10060818;28;20037;-66
2022/08/18 04:59:57;;;;;;;5.78;4.45;;;21.30;99.90;;;;;;10054644;28;20534;-67
2022/08/18 05:04:48;;;;;;;4.60;3.60;;;21.30;99.90;;;;;;10054944;28;20040;-68
2022/08/18 05:09:40;;;;;;;5.53;3.65;;;21.20;99.90;;;;;;10038328;28;20026;-66
2022/08/18 05:14:32;;;;;;;5.82;3.58;;;21.30;99.90;;;;;;10048174;28;20037;-66
2022/08/18 05:19:25;;;;;;;9.80;4.57;;;21.20;99.90;;;;;;10051792;28;20041;-66
2022/08/18 05:24:16;;;;;;;9.35;3.78;;;21.10;99.90;;;;;;10055682;28;20586;-67
2022/08/18 05:29:07;;;;;;;6.20;3.55;;;21.20;99.90;;;;;;10054076;28;20224;-66
2022/08/18 05:34:01;;;;;;;5.30;3.95;;;21.20;99.90;;;;;;10052908;28;20423;-65
2022/08/18 05:38:57;;;;;;;6.70;3.95;;;21.20;99.90;;;;;;10071299;28;20041;-66
2022/08/18 05:43:48;;;;;;;5.15;3.85;;;21.40;99.90;;;;;;10052057;28;20085;-67
2022/08/18 05:48:39;;;;;;;4.82;3.70;;;21.50;99.90;;;;;;10052158;28;20087;-67
2022/08/18 05:58:43;;;;;;;5.82;4.38;;;21.40;99.90;;;;;;10051264;28;20835;-66
2022/08/18 06:03:48;;;;;;;6.18;4.05;;;21.50;99.90;;;;;;10057791;28;20244;-67
2022/08/18 06:09:06;;;;;;;4.97;3.28;;;21.60;99.90;;;;;;10052244;28;20095;-67
2022/08/18 06:13:57;;;;;;;7.22;4.57;;;21.60;99.90;;;;;;10059617;28;20030;-66
2022/08/18 06:18:48;;;;;;;5.97;3.70;;;21.70;99.90;;;;;;10060200;28;20124;-67
2022/08/18 06:23:56;;;;;;;4.88;3.92;;;21.70;99.90;;;;;;10052680;28;20164;-67
2022/08/18 06:29:17;;;;;;;5.82;3.40;;;21.80;99.90;;;;;;10055348;28;20014;-67
2022/08/18 06:34:39;;;;;;;4.15;3.38;;;21.80;99.90;;;;;;10044729;28;20156;-67
2022/08/18 06:39:44;;;;;;;4.22;3.45;;;21.90;99.90;;;;;;10067227;28;20484;-67
2022/08/18 06:44:47;;;;;;;5.55;4.35;;;22.00;99.90;;;;;;10088493;28;20033;-67
2022/08/18 06:49:50;;;;;;;5.72;3.65;;;21.80;99.90;;;;;;10063491;28;20029;-67
2022/08/18 06:54:42;;;;;;;6.05;4.35;;;21.70;99.90;;;;;;10065523;28;20025;-67
2022/08/18 06:59:35;;;;;;;4.93;3.90;;;21.80;99.90;;;;;;10073933;28;20025;-67
2022/08/18 07:04:40;;;;;;;5.53;4.30;;;21.70;99.90;;;;;;10068608;28;20017;-68
2022/08/18 07:09:33;;;;;;;6.65;4.65;;;21.50;99.90;;;;;;10062119;28;20120;-67
2022/08/18 07:14:24;;;;;;;5.65;4.10;;;21.50;99.90;;;;;;10067729;28;20037;-68
2022/08/18 07:19:20;;;;;;;5.70;4.05;;;21.50;99.90;;;;;;10058634;28;20024;-66
2022/08/18 07:24:43;;;;;;;4.55;3.28;;;21.40;99.90;;;;;;10057263;28;20044;-66
2022/08/18 07:29:59;;;;;;;6.25;3.45;;;21.30;99.90;;;;;;10039376;28;20049;-66
2022/08/18 07:34:56;;;;;;;4.57;3.42;;;21.30;99.90;;;;;;10041840;28;20033;-67
2022/08/18 07:40:00;;;;;;;8.52;3.92;;;21.20;99.90;;;;;;10067624;28;20057;-66
2022/08/18 07:44:53;;;;;;;6.13;3.30;;;21.50;99.90;;;;;;10056516;28;20539;-66
2022/08/18 07:49:46;;;;;;;3.83;3.42;;;21.70;99.90;;;;;;10056038;28;20044;-68
2022/08/18 07:55:06;;;;;;;5.63;3.53;;;21.70;99.90;;;;;;10061586;28;20120;-66
2022/08/18 08:00:15;;;;;;;4.28;3.17;;;21.70;99.90;;;;;;10054099;28;20056;-67
2022/08/18 08:05:23;;;;;;;5.55;4.28;;;21.50;99.90;;;;;;10058072;28;20245;-66
2022/08/18 08:10:43;;;;;;;7.10;3.35;;;21.70;99.90;;;;;;10045902;28;20025;-67
2022/08/18 08:15:41;;;;;;;6.70;4.03;;;21.90;99.90;;;;;;10066305;28;20045;-66
2022/08/18 08:20:52;;;;;;;5.32;3.60;;;21.60;99.90;;;;;;10049082;28;20150;-66
2022/08/18 08:25:50;;;;;;;7.40;3.90;;;21.60;99.90;;;;;;10052398;28;20017;-68
2022/08/18 08:31:07;;;;;;;8.27;3.45;;;21.60;99.90;;;;;;10052380;28;20464;-67
2022/08/18 08:36:08;;;;;;;4.80;3.35;;;21.90;99.90;;;;;;10043692;28;20028;-67
2022/08/18 08:41:08;;;;;;;6.72;3.88;;;21.90;99.90;;;;;;10057684;28;20779;-66
2022/08/18 08:46:10;;;;;;;7.57;4.97;;;22.00;99.90;;;;;;10046094;28;20034;-67
2022/08/18 08:51:13;;;;;;;5.95;3.78;;;22.10;99.90;;;;;;10054700;28;20030;-67
2022/08/18 08:56:13;;;;;;;6.10;4.40;;;22.00;99.90;;;;;;10057483;28;20037;-67
2022/08/18 09:01:05;;;;;;;7.43;4.22;;;22.40;99.90;;;;;;10056444;28;20033;-67
2022/08/18 09:06:33;;;;;;;6.25;4.63;;;22.80;99.90;;;;;;10054183;28;20018;-67
2022/08/18 09:11:31;;;;;;;6.75;4.20;;;23.30;99.90;;;;;;10050017;28;20497;-67
2022/08/18 09:17:03;;;;;;;7.00;4.20;;;23.40;99.90;;;;;;10070670;28;20037;-67
2022/08/18 09:22:38;;;;;;;9.65;4.70;;;23.10;99.90;;;;;;9963849;28;20080;-66
2022/08/18 09:27:41;;;;;;;8.10;4.50;;;23.30;99.90;;;;;;10040646;28;20527;-66
2022/08/18 09:33:13;;;;;;;6.43;3.97;;;23.40;99.90;;;;;;10033513;28;20281;-66
2022/08/18 09:43:29;;;;;;;7.10;5.05;;;23.40;99.90;;;;;;10051847;28;20056;-67
2022/08/18 09:48:29;;;;;;;7.70;5.28;;;23.40;99.90;;;;;;10052493;28;20032;-66
2022/08/18 09:53:51;;;;;;;8.02;4.78;;;23.30;99.90;;;;;;10048780;28;20548;-66
2022/08/18 09:58:55;;;;;;;9.25;4.97;;;23.30;99.90;;;;;;10055356;28;20525;-67
2022/08/18 10:04:14;;;;;;;5.80;4.72;;;23.40;99.90;;;;;;10050074;28;20388;-67
2022/08/18 10:09:43;;;;;;;7.63;5.38;;;23.70;99.90;;;;;;10047533;28;20571;-68
2022/08/18 10:15:07;;;;;;;8.93;5.78;;;23.80;99.90;;;;;;10072966;28;20095;-67
2022/08/18 10:20:13;;;;;;;9.05;5.00;;;24.20;99.90;;;;;;10062973;28;20059;-68
2022/08/18 10:25:07;;;;;;;7.70;5.05;;;24.60;99.90;;;;;;10060815;28;20165;-67
2022/08/18 10:29:59;;;;;;;7.68;5.22;;;24.80;99.90;;;;;;10063746;28;20112;-66
2022/08/18 10:34:52;;;;;;;6.65;4.75;;;25.20;99.90;;;;;;10059629;28;20112;-66
2022/08/18 10:39:50;;;;;;;8.55;6.25;;;25.60;99.90;;;;;;10070343;28;20101;-67
2022/08/18 10:44:44;;;;;;;12.10;8.63;;;25.50;99.90;;;;;;10059133;28;20039;-66
2022/08/18 10:49:37;;;;;;;10.25;7.15;;;25.00;99.90;;;;;;10050919;28;20029;-66
2022/08/18 10:54:27;;;;;;;11.55;6.93;;;24.50;99.90;;;;;;10065076;28;20029;-66
2022/08/18 10:59:45;;;;;;;16.10;10.65;;;24.30;99.90;;;;;;10058734;28;20029;-66
2022/08/18 11:04:42;;;;;;;13.82;8.07;;;24.00;99.90;;;;;;10058194;28;20064;-66
2022/08/18 11:09:33;;;;;;;13.88;9.63;;;24.10;99.90;;;;;;10056078;28;20028;-69
2022/08/18 11:14:48;;;;;;;9.77;7.35;;;24.10;99.90;;;;;;10074877;28;20064;-66
2022/08/18 11:19:42;;;;;;;11.25;7.55;;;24.20;99.90;;;;;;10063598;28;20049;-66
2022/08/18 11:24:34;;;;;;;11.20;6.77;;;24.70;99.90;;;;;;10065385;28;20053;-67
2022/08/18 11:29:32;;;;;;;11.30;6.88;;;25.20;99.90;;;;;;10044415;28;20287;-67
2022/08/18 11:34:46;;;;;;;7.78;6.25;;;25.50;99.90;;;;;;10057980;28;20053;-67
2022/08/18 11:39:48;;;;;;;10.20;7.53;;;25.40;99.90;;;;;;10065182;28;20307;-67
2022/08/18 11:44:39;;;;;;;12.30;8.43;;;25.30;99.90;;;;;;10085328;28;20029;-67
2022/08/18 11:49:32;;;;;;;9.18;7.25;;;25.00;99.90;;;;;;10083842;28;20475;-67
2022/08/18 11:54:38;;;;;;;8.93;7.68;;;25.30;99.90;;;;;;10065669;28;20661;-66
2022/08/18 11:59:31;;;;;;;11.05;8.40;;;25.20;99.80;;;;;;10064136;28;20606;-66
2022/08/18 12:04:28;;;;;;;11.10;8.27;;;25.00;99.90;;;;;;10051002;28;20029;-67
2022/08/18 12:09:22;;;;;;;8.65;7.72;;;25.00;99.90;;;;;;10046494;28;20034;-67
2022/08/18 12:14:20;;;;;;;12.60;9.23;;;25.20;99.70;;;;;;10049885;28;20104;-69
2022/08/18 12:19:13;;;;;;;9.88;7.88;;;25.00;99.70;;;;;;10059568;28;20273;-66
2022/08/18 12:24:06;;;;;;;10.82;8.45;;;25.10;99.60;;;;;;10054875;28;20033;-67
2022/08/18 12:28:56;;;;;;;15.90;9.77;;;25.00;99.50;;;;;;10047272;28;20025;-67
2022/08/18 12:33:47;;;;;;;13.13;9.35;;;25.20;99.40;;;;;;10057523;28;20024;-67
2022/08/18 12:38:42;;;;;;;13.85;9.93;;;25.70;99.20;;;;;;10067528;28;20029;-67
2022/08/18 12:43:33;;;;;;;14.52;10.00;;;26.00;98.90;;;;;;10036768;28;20037;-67
2022/08/18 12:48:30;;;;;;;12.00;9.18;;;26.40;98.50;;;;;;10054413;28;20137;-67
2022/08/18 12:53:22;;;;;;;14.23;10.00;;;26.80;98.40;;;;;;10056158;28;20238;-67
2022/08/18 12:58:14;;;;;;;12.00;10.20;;;27.20;98.20;;;;;;10058167;28;20456;-66
2022/08/18 13:03:05;;;;;;;9.82;8.82;;;27.50;98.00;;;;;;10053186;28;20132;-67
2022/08/18 13:07:59;;;;;;;11.50;9.70;;;27.60;97.80;;;;;;10056074;28;20494;-66
2022/08/18 13:12:49;;;;;;;10.13;8.65;;;27.70;97.40;;;;;;10059590;28;20437;-68
2022/08/18 13:17:40;;;;;;;8.13;7.30;;;28.20;97.00;;;;;;10046877;28;20047;-67
2022/08/18 13:22:31;;;;;;;9.70;8.15;;;28.80;96.70;;;;;;10052725;28;20069;-66
2022/08/18 13:27:21;;;;;;;9.15;7.93;;;29.30;95.80;;;;;;10056088;28;20655;-67
2022/08/18 13:32:13;;;;;;;10.45;8.27;;;29.40;95.30;;;;;;10052137;28;20029;-66
2022/08/18 13:37:04;;;;;;;9.00;7.47;;;29.10;95.40;;;;;;10052789;28;20040;-64
2022/08/18 13:41:55;;;;;;;8.38;7.22;;;29.10;95.00;;;;;;10056897;28;20036;-66
2022/08/18 13:46:47;;;;;;;8.43;7.25;;;28.20;95.20;;;;;;10052231;28;20020;-66
2022/08/18 13:51:39;;;;;;;9.48;6.95;;;28.40;94.90;;;;;;10056954;28;20064;-66
2022/08/18 13:56:29;;;;;;;7.65;6.88;;;28.70;94.60;;;;;;10056855;28;20107;-66
2022/08/18 14:01:20;;;;;;;8.55;6.78;;;29.80;93.70;;;;;;10055642;28;20065;-66
2022/08/18 14:06:11;;;;;;;8.73;6.80;;;30.80;93.30;;;;;;10052089;28;20025;-66
2022/08/18 14:11:02;;;;;;;7.43;6.72;;;30.90;92.70;;;;;;10053187;28;20026;-67
2022/08/18 14:15:55;;;;;;;7.13;6.03;;;30.60;92.90;;;;;;10067264;28;20038;-66
2022/08/18 14:31:04;;;;;;;6.57;5.90;;;31.30;92.10;;;;;;10043418;28;20114;-66
2022/08/18 14:35:55;;;;;;;6.97;6.03;;;30.10;92.30;;;;;;10053910;28;20601;-66
2022/08/18 14:40:47;;;;;;;6.13;5.53;;;30.10;92.00;;;;;;10061873;28;20042;-66
2022/08/18 14:45:38;;;;;;;7.90;5.45;;;30.10;91.80;;;;;;10054933;28;20429;-66
2022/08/18 14:50:29;;;;;;;6.78;5.95;;;29.60;91.80;;;;;;10051170;28;20029;-66
2022/08/18 14:55:19;;;;;;;5.88;5.13;;;29.20;92.00;;;;;;10056667;28;20031;-65
2022/08/18 15:00:15;;;;;;;8.05;6.50;;;29.20;92.00;;;;;;10047065;28;20032;-66
2022/08/18 15:05:07;;;;;;;6.35;5.72;;;29.90;91.50;;;;;;10035353;28;20033;-65
2022/08/18 15:09:58;;;;;;;5.85;4.95;;;29.60;91.40;;;;;;10045676;28;20120;-65
2022/08/18 15:14:48;;;;;;;6.68;5.80;;;29.70;91.30;;;;;;10075934;28;20148;-65
2022/08/18 15:19:39;;;;;;;9.18;7.05;;;29.90;91.20;;;;;;10058721;28;20025;-66
2022/08/18 15:29:39;;;;;;;6.00;5.18;;;29.40;91.00;;;;;;10048224;28;20074;-66
2022/08/18 15:34:29;;;;;;;8.30;6.22;;;29.20;91.00;;;;;;10056748;28;20036;-66
2022/08/18 15:39:20;;;;;;;7.15;6.03;;;28.90;91.20;;;;;;10069625;28;20426;-66
2022/08/18 15:44:13;;;;;;;8.57;6.10;;;28.50;91.30;;;;;;10059379;28;20044;-65
2022/08/18 15:49:06;;;;;;;7.70;5.78;;;28.20;91.60;;;;;;10056157;28;20021;-66
2022/08/18 15:53:57;;;;;;;7.50;5.43;;;28.00;91.80;;;;;;10067273;28;20025;-65
2022/08/18 15:58:48;;;;;;;6.40;5.70;;;27.70;91.70;;;;;;10056384;28;20021;-66
2022/08/18 16:03:39;;;;;;;7.57;5.25;;;27.60;91.90;;;;;;10056355;28;20031;-67
2022/08/18 16:08:30;;;;;;;5.85;5.25;;;27.50;91.90;;;;;;10048373;28;20028;-66
2022/08/18 16:13:23;;;;;;;7.25;5.90;;;27.40;92.30;;;;;;10066393;28;20391;-66
2022/08/18 16:18:16;;;;;;;5.78;5.25;;;27.50;92.00;;;;;;10063222;28;20156;-65
2022/08/18 16:23:06;;;;;;;6.75;5.32;;;27.40;91.90;;;;;;10055736;28;20040;-66
2022/08/18 16:27:58;;;;;;;6.13;5.50;;;27.30;92.10;;;;;;10042385;28;20121;-66
2022/08/18 16:32:49;;;;;;;8.30;6.70;;;27.30;92.30;;;;;;10054816;28;20052;-65
2022/08/18 16:37:40;;;;;;;9.95;8.15;;;27.20;92.80;;;;;;10057504;28;20075;-65
2022/08/18 16:42:34;;;;;;;7.80;6.78;;;26.80;93.40;;;;;;10026577;28;20120;-65
2022/08/18 16:47:25;;;;;;;10.25;7.70;;;26.50;94.10;;;;;;10063729;28;20053;-66
2022/08/18 16:52:17;;;;;;;7.70;6.57;;;26.40;94.40;;;;;;10058590;28;20017;-67
2022/08/18 16:57:09;;;;;;;12.13;8.32;;;26.50;94.60;;;;;;10054471;28;20574;-66
2022/08/18 17:07:08;;;;;;;11.90;8.15;;;26.10;95.20;;;;;;10052930;28;20201;-65
2022/08/18 17:12:00;;;;;;;10.38;7.25;;;25.90;95.50;;;;;;10057945;28;20289;-66
2022/08/18 17:16:55;;;;;;;9.88;7.07;;;25.80;95.80;;;;;;10072237;28;20427;-66
2022/08/18 17:21:46;;;;;;;8.70;6.68;;;25.80;96.00;;;;;;10053608;28;20038;-65
2022/08/18 17:26:43;;;;;;;9.05;6.50;;;26.00;95.80;;;;;;10038046;28;20017;-66
2022/08/18 17:31:34;;;;;;;9.25;7.00;;;26.00;95.80;;;;;;10052675;28;20415;-66
2022/08/18 17:36:50;;;;;;;9.52;7.20;;;25.90;96.00;;;;;;10054878;28;20092;-66
2022/08/18 17:46:51;;;;;;;9.02;6.85;;;25.40;96.40;;;;;;10052848;28;20048;-66
2022/08/18 17:51:48;;;;;;;8.80;6.35;;;25.40;96.60;;;;;;10049800;28;20491;-66
2022/08/18 17:56:44;;;;;;;8.07;6.57;;;25.50;96.40;;;;;;10038697;28;20034;-66
2022/08/18 18:01:35;;;;;;;8.52;6.30;;;25.60;96.30;;;;;;10056679;28;20042;-67
2022/08/18 18:06:36;;;;;;;8.30;7.30;;;25.40;96.60;;;;;;10052032;28;20033;-66
2022/08/18 18:11:33;;;;;;;7.75;6.65;;;25.20;96.70;;;;;;10034299;28;20052;-67
2022/08/18 18:16:28;;;;;;;8.65;6.03;;;25.10;96.80;;;;;;10068649;28;20104;-66
2022/08/18 18:21:21;;;;;;;9.93;7.63;;;25.00;96.90;;;;;;10051280;28;20030;-66
2022/08/18 18:26:28;;;;;;;11.25;6.32;;;25.00;97.00;;;;;;10051564;28;20441;-67
2022/08/18 18:31:25;;;;;;;8.90;6.20;;;25.00;97.00;;;;;;10044992;28;20033;-67
2022/08/18 18:36:31;;;;;;;10.15;7.75;;;25.00;96.90;;;;;;10057129;28;20021;-67
2022/08/18 18:41:26;;;;;;;9.05;6.18;;;24.90;97.10;;;;;;10066281;28;20603;-65
2022/08/18 18:46:29;;;;;;;10.52;6.70;;;24.90;97.10;;;;;;10044444;28;20037;-66
2022/08/18 18:51:29;;;;;;;9.32;6.53;;;24.80;97.20;;;;;;10075162;23;20056;-61
2022/08/18 18:56:30;;;;;;;10.52;6.13;;;24.90;97.30;;;;;;10017675;28;20026;-62
2022/08/18 19:01:38;;;;;;;8.48;6.80;;;24.90;97.30;;;;;;10014765;28;20424;-63
2022/08/18 19:06:37;;;;;;;12.27;8.40;;;24.80;97.50;;;;;;10014749;28;20104;-67
2022/08/18 19:11:52;;;;;;;10.55;7.00;;;24.60;97.70;;;;;;10018768;28;20025;-64
2022/08/18 19:16:50;;;;;;;;;;;24.60;97.70;;;;;;10017603;28;20022;-66
2022/08/18 19:21:44;;;;;;;10.80;7.00;;;24.50;97.80;;;;;;10000540;28;19917;-67
2022/08/18 19:26:43;;;;;;;7.78;6.13;;;24.60;97.80;;;;;;10019535;28;20022;-64
2022/08/18 19:31:41;;;;;;;8.20;7.05;;;24.60;97.70;;;;;;10014654;28;20109;-67
2022/08/18 19:36:55;;;;;;;8.77;6.65;;;24.60;97.80;;;;;;10018741;28;20022;-63
2022/08/18 19:42:10;;;;;;;6.32;5.53;;;24.40;97.90;;;;;;10003553;28;20037;-65
2022/08/18 19:47:10;;;;;;;9.02;6.75;;;24.50;97.90;;;;;;10013878;28;20025;-64
2022/08/18 19:52:17;;;;;;;8.15;7.03;;;24.40;97.90;;;;;;10016293;28;20543;-63
2022/08/18 19:57:47;;;;;;;9.13;6.35;;;24.60;97.70;;;;;;10011412;28;20025;-60
2022/08/18 20:02:44;;;;;;;9.82;7.40;;;24.50;97.90;;;;;;9895000;29;20039;-61
2022/08/18 20:07:59;;;;;;;8.20;6.40;;;24.40;97.90;;;;;;9974502;28;20034;-70
2022/08/18 20:12:59;;;;;;;7.90;6.78;;;24.40;98.00;;;;;;10014334;28;20029;-62
2022/08/18 20:17:56;;;;;;;11.55;7.35;;;24.30;98.10;;;;;;10016017;28;20080;-61
2022/08/18 20:22:49;;;;;;;10.05;7.40;;;24.30;98.10;;;;;;10022351;28;20144;-60
2022/08/18 20:27:49;;;;;;;10.65;7.35;;;24.30;98.10;;;;;;9998872;28;20026;-67
2022/08/18 20:32:40;;;;;;;10.38;7.10;;;24.30;98.10;;;;;;10017187;28;20034;-61
2022/08/18 20:37:30;;;;;;;12.45;7.18;;;24.40;98.10;;;;;;10016837;28;20022;-60
2022/08/18 20:42:21;;;;;;;10.35;7.45;;;24.40;97.90;;;;;;10016010;28;20673;-61
2022/08/18 20:47:18;;;;;;;10.38;6.63;;;24.40;98.00;;;;;;10010522;28;20033;-63
2022/08/18 20:52:35;;;;;;;11.98;7.13;;;24.40;98.10;;;;;;10010619;28;20468;-64
2022/08/18 20:57:33;;;;;;;10.98;7.18;;;24.30;98.20;;;;;;10011882;28;20038;-61
2022/08/18 21:02:40;;;;;;;7.53;6.47;;;24.30;98.20;;;;;;9997000;28;20504;-61
2022/08/18 21:07:37;;;;;;;8.60;7.05;;;24.40;98.10;;;;;;10012888;28;20029;-60
2022/08/18 21:12:30;;;;;;;8.55;6.70;;;24.40;98.10;;;;;;10013383;28;20049;-60
2022/08/18 21:17:24;;;;;;;12.45;6.07;;;24.30;98.10;;;;;;10013235;28;20543;-60
2022/08/18 21:22:18;;;;;;;8.57;6.97;;;24.40;98.20;;;;;;10013267;28;20046;-61
2022/08/18 21:27:36;;;;;;;8.07;6.47;;;24.50;98.10;;;;;;9995848;28;20029;-63
2022/08/18 21:32:39;;;;;;;9.43;6.70;;;24.60;98.10;;;;;;10008431;28;20037;-67
2022/08/18 21:37:32;;;;;;;9.73;6.82;;;24.50;98.10;;;;;;10013081;28;20053;-60
2022/08/18 21:42:41;;;;;;;9.05;7.07;;;24.60;98.10;;;;;;10013816;28;20029;-63
2022/08/18 21:47:33;;;;;;;10.70;7.78;;;24.60;98.30;;;;;;10008041;28;20054;-61
2022/08/18 21:52:26;;;;;;;9.38;6.45;;;24.50;98.30;;;;;;10012736;28;20056;-64
2022/08/18 21:57:25;;;;;;;8.95;7.43;;;24.50;98.40;;;;;;10013962;28;20026;-62
2022/08/18 22:02:20;;;;;;;8.63;6.78;;;24.40;98.50;;;;;;10012296;28;20092;-67
2022/08/18 22:07:14;;;;;;;10.13;6.95;;;24.10;98.70;;;;;;10011485;28;20018;-69
2022/08/18 22:18:04;;;;;;;8.82;6.68;;;24.40;98.80;;;;;;10020478;28;20100;-64
2022/08/18 22:28:27;;;;;;;10.43;7.93;;;23.90;99.30;;;;;;10016222;28;20443;-69
2022/08/18 22:33:18;;;;;;;9.85;7.47;;;23.70;99.50;;;;;;10008376;28;20072;-64
2022/08/18 22:38:09;;;;;;;9.15;7.72;;;23.50;99.90;;;;;;10020383;28;20018;-66
2022/08/18 22:42:59;;;;;;;10.90;7.95;;;23.40;99.90;;;;;;10018922;28;20068;-66
2022/08/18 22:47:50;;;;;;;12.57;8.23;;;23.40;99.90;;;;;;10014522;28;20014;-60
2022/08/18 22:52:46;;;;;;;11.68;8.57;;;23.50;99.90;;;;;;10018968;28;20065;-65
2022/08/18 22:57:39;;;;;;;10.55;7.85;;;23.50;99.90;;;;;;10019708;28;20295;-60
2022/08/18 23:02:30;;;;;;;12.38;8.32;;;23.50;99.90;;;;;;10018460;28;20052;-61
2022/08/18 23:07:21;;;;;;;12.50;8.20;;;23.50;99.90;;;;;;10018414;28;20030;-59
2022/08/18 23:12:12;;;;;;;13.27;8.30;;;23.20;99.90;;;;;;10018578;28;20089;-62
2022/08/18 23:17:04;;;;;;;13.07;8.95;;;23.10;99.90;;;;;;10017835;28;20159;-64
2022/08/18 23:21:55;;;;;;;12.70;8.85;;;23.00;99.90;;;;;;10016738;28;20038;-59
2022/08/18 23:26:46;;;;;;;12.90;8.63;;;23.10;99.90;;;;;;10020509;28;20026;-62
2022/08/18 23:31:38;;;;;;;13.55;7.60;;;23.20;99.90;;;;;;10018526;28;20573;-60
2022/08/18 23:36:30;;;;;;;12.25;9.07;;;23.20;99.90;;;;;;10018627;28;20102;-68
2022/08/18 23:41:20;;;;;;;16.58;8.75;;;23.20;99.90;;;;;;10017793;28;20112;-59
2022/08/18 23:46:20;;;;;;;13.82;8.65;;;23.20;99.90;;;;;;10013977;28;20540;-61
2022/08/18 23:51:11;;;;;;;11.10;7.75;;;23.30;99.90;;;;;;10011036;28;20073;-67
2022/08/18 23:56:04;;;;;;;11.25;8.70;;;23.30;99.90;;;;;;10010305;28;20022;-60
